createdAt,value
2018-08-11T00:01:27.258Z,1.50
2018-08-11T00:03:57.433Z,1.60
2018-08-11T00:06:27.579Z,1.50
2018-08-11T00:08:57.875Z,1.53
2018-08-11T00:11:27.907Z,1.30
2018-08-11T00:13:58.115Z,1.40
2018-08-11T00:16:28.245Z,1.50
2018-08-11T00:18:58.313Z,1.60
2018-08-11T00:21:28.433Z,1.80
2018-08-11T00:23:58.478Z,1.90
2018-08-11T00:26:28.661Z,1.90
2018-08-11T00:28:58.985Z,1.63
2018-08-11T00:31:29.171Z,1.77
2018-08-11T00:33:59.387Z,1.90
2018-08-11T00:36:29.613Z,1.83
2018-08-11T00:38:59.809Z,2.10
2018-08-11T00:41:30.057Z,1.70
2018-08-11T00:44:00.189Z,2.03
2018-08-11T00:46:30.637Z,2.07
2018-08-11T00:49:01.536Z,2.30
2018-08-11T00:51:31.745Z,2.30
2018-08-11T00:54:02.420Z,2.50
2018-08-11T00:56:32.575Z,2.70
2018-08-11T00:59:02.689Z,2.40
2018-08-11T01:01:32.838Z,2.40
2018-08-11T01:04:02.915Z,2.50
2018-08-11T01:06:33.057Z,2.50
2018-08-11T01:09:03.523Z,2.13
2018-08-11T01:11:33.603Z,2.73
2018-08-11T01:14:03.815Z,2.80
2018-08-11T01:16:33.909Z,2.73
2018-08-11T01:19:04.454Z,3.10
2018-08-11T01:21:34.602Z,2.87
2018-08-11T01:24:04.695Z,2.63
2018-08-11T01:26:34.800Z,2.73
2018-08-11T01:29:05.209Z,3.20
2018-08-11T01:31:35.315Z,3.03
2018-08-11T01:34:06.436Z,2.90
2018-08-11T01:36:36.617Z,3.07
2018-08-11T01:39:08.267Z,3.10
2018-08-11T01:41:38.417Z,2.83
2018-08-11T01:44:08.636Z,3.77
2018-08-11T01:46:38.747Z,3.13
2018-08-11T01:49:08.791Z,3.30
2018-08-11T01:51:38.859Z,3.10
2018-08-11T01:54:08.947Z,3.00
2018-08-11T01:56:39.029Z,3.23
2018-08-11T01:59:09.345Z,3.37
2018-08-11T02:01:39.434Z,3.50
2018-08-11T02:04:09.879Z,3.60
2018-08-11T02:06:40.212Z,3.53
2018-08-11T02:09:11.165Z,3.83
2018-08-11T02:11:41.538Z,3.83
2018-08-11T02:14:11.841Z,4.20
2018-08-11T02:16:41.939Z,3.63
2018-08-11T02:19:11.978Z,3.87
2018-08-11T02:21:42.123Z,4.37
2018-08-11T02:24:12.318Z,4.03
2018-08-11T02:26:42.403Z,4.17
2018-08-11T02:29:12.558Z,4.67
2018-08-11T02:31:42.788Z,4.37
2018-08-11T02:34:13.028Z,4.23
2018-08-11T02:36:43.176Z,4.07
2018-08-11T02:39:15.087Z,4.37
2018-08-11T02:41:45.224Z,4.40
2018-08-11T02:44:15.298Z,4.83
2018-08-11T02:46:45.538Z,5.23
2018-08-11T02:49:15.718Z,4.90
2018-08-11T02:51:45.799Z,5.03
2018-08-11T02:54:15.873Z,5.00
2018-08-11T02:56:46.062Z,4.70
2018-08-11T02:59:20.334Z,5.20
2018-08-11T03:01:50.582Z,4.90
2018-08-11T03:04:20.912Z,4.43
2018-08-11T03:06:51.512Z,4.70
2018-08-11T03:09:21.802Z,4.87
2018-08-11T03:11:51.920Z,5.03
2018-08-11T03:14:22.024Z,5.13
2018-08-11T03:16:52.136Z,5.93
2018-08-11T03:19:22.250Z,5.63
2018-08-11T03:21:52.342Z,5.57
2018-08-11T03:24:22.380Z,4.97
2018-08-11T03:26:52.472Z,5.20
2018-08-11T03:29:22.577Z,4.73
2018-08-11T03:31:52.745Z,5.30
2018-08-11T03:34:22.784Z,5.40
2018-08-11T03:36:53.508Z,4.80
2018-08-11T03:39:23.568Z,4.67
2018-08-11T03:41:54.264Z,5.47
2018-08-11T03:44:24.328Z,5.40
2018-08-11T03:46:54.390Z,5.37
2018-08-11T03:49:24.444Z,5.73
2018-08-11T03:51:54.498Z,4.90
2018-08-11T03:54:25.955Z,5.67
2018-08-11T03:56:56.052Z,5.33
2018-08-11T03:59:26.155Z,5.90
2018-08-11T04:01:56.284Z,5.70
2018-08-11T04:04:26.568Z,6.10
2018-08-11T04:06:56.789Z,5.30
2018-08-11T04:09:26.977Z,5.70
2018-08-11T04:11:57.101Z,5.93
2018-08-11T04:14:27.535Z,5.60
2018-08-11T04:16:58.285Z,5.83
2018-08-11T04:19:28.343Z,5.53
2018-08-11T04:21:58.592Z,6.23
2018-08-11T04:24:29.153Z,5.63
2018-08-11T04:26:59.393Z,6.10
2018-08-11T04:29:29.561Z,6.03
2018-08-11T04:32:00.932Z,6.23
2018-08-11T04:34:31.462Z,6.33
2018-08-11T04:37:01.583Z,5.60
2018-08-11T04:39:31.711Z,5.87
2018-08-11T04:42:02.044Z,5.87
2018-08-11T04:44:32.138Z,5.67
2018-08-11T04:47:02.234Z,6.40
2018-08-11T04:49:32.295Z,6.03
2018-08-11T04:52:02.515Z,5.80
2018-08-11T04:54:32.865Z,6.00
2018-08-11T04:57:03.007Z,5.57
2018-08-11T04:59:33.025Z,6.07
2018-08-11T05:02:03.159Z,6.37
2018-08-11T05:04:34.143Z,5.80
2018-08-11T05:07:04.265Z,5.83
2018-08-11T05:09:34.427Z,5.80
2018-08-11T05:12:04.571Z,5.50
2018-08-11T05:14:34.689Z,5.63
2018-08-11T05:17:04.861Z,5.43
2018-08-11T05:19:34.902Z,5.80
2018-08-11T05:22:05.203Z,6.20
2018-08-11T05:24:35.386Z,5.27
2018-08-11T05:27:05.650Z,5.50
2018-08-11T05:29:35.850Z,6.07
2018-08-11T05:32:06.051Z,4.60
2018-08-11T05:34:36.927Z,5.20
2018-08-11T05:37:07.619Z,5.20
2018-08-11T05:39:37.749Z,4.70
2018-08-11T05:42:08.423Z,5.40
2018-08-11T05:44:39.175Z,5.13
2018-08-11T05:47:09.543Z,4.77
2018-08-11T05:49:39.613Z,5.20
2018-08-11T05:52:09.777Z,4.37
2018-08-11T05:54:39.927Z,4.90
2018-08-11T05:57:10.008Z,5.00
2018-08-11T05:59:40.115Z,5.30
2018-08-11T06:02:10.435Z,4.63
2018-08-11T06:04:40.507Z,4.77
2018-08-11T06:07:10.779Z,4.43
2018-08-11T06:09:41.577Z,4.57
2018-08-11T06:12:11.739Z,4.90
2018-08-11T06:14:41.858Z,4.30
2018-08-11T06:17:12.125Z,4.90
2018-08-11T06:19:42.316Z,4.13
2018-08-11T06:22:12.369Z,4.00
2018-08-11T06:24:42.426Z,4.10
2018-08-11T06:27:12.531Z,3.80
2018-08-11T06:29:42.687Z,3.43
2018-08-11T06:32:12.856Z,3.43
2018-08-11T06:34:42.802Z,3.13
2018-08-11T06:37:13.025Z,3.30
2018-08-11T06:39:43.125Z,3.00
2018-08-11T06:42:13.261Z,2.60
2018-08-11T06:44:43.280Z,2.50
2018-08-11T06:47:13.387Z,2.73
2018-08-11T06:49:43.445Z,2.37
2018-08-11T06:52:13.610Z,2.17
2018-08-11T06:54:43.745Z,1.90
2018-08-11T06:57:13.834Z,1.73
2018-08-11T06:59:44.423Z,1.60
2018-08-11T07:02:14.554Z,1.60
2018-08-11T07:04:44.744Z,1.47
2018-08-11T07:07:14.970Z,1.57
2018-08-11T07:09:45.028Z,1.50
2018-08-11T07:12:15.128Z,1.33
2018-08-11T07:14:45.184Z,1.60
2018-08-11T07:17:15.315Z,1.30
2018-08-11T07:19:45.354Z,1.43
2018-08-11T07:22:15.658Z,1.30
2018-08-11T07:24:45.976Z,1.47
2018-08-11T07:27:16.198Z,1.23
2018-08-11T07:29:46.355Z,1.10
2018-08-11T07:32:16.548Z,1.63
2018-08-11T07:34:46.775Z,1.20
2018-08-11T07:37:16.846Z,1.27
2018-08-11T07:39:47.076Z,1.17
2018-08-11T07:42:17.186Z,0.90
2018-08-11T07:44:47.226Z,1.07
2018-08-11T07:47:17.464Z,1.07
2018-08-11T07:49:47.642Z,0.90
2018-08-11T07:52:17.803Z,1.10
2018-08-11T07:54:57.454Z,1.07
2018-08-11T07:57:27.626Z,1.10
2018-08-11T07:59:57.747Z,1.27
2018-08-11T08:02:27.871Z,0.93
2018-08-11T08:04:58.988Z,1.23
2018-08-11T08:07:29.099Z,1.00
2018-08-11T08:09:59.264Z,1.03
2018-08-11T08:12:29.432Z,1.27
2018-08-11T08:14:59.541Z,1.20
2018-08-11T08:17:29.728Z,1.03
2018-08-11T08:20:06.305Z,1.30
2018-08-11T08:22:36.494Z,1.10
2018-08-11T08:25:07.238Z,0.80
2018-08-11T08:27:37.551Z,1.03
2018-08-11T08:30:11.370Z,1.13
2018-08-11T08:32:41.619Z,1.20
2018-08-11T08:35:11.760Z,0.90
2018-08-11T08:37:41.869Z,1.13
2018-08-11T08:40:13.084Z,0.90
2018-08-11T08:42:43.282Z,1.40
2018-08-11T08:45:13.434Z,1.10
2018-08-11T08:47:43.582Z,1.10
2018-08-11T08:50:13.688Z,0.83
2018-08-11T08:52:43.826Z,0.97
2018-08-11T08:55:13.910Z,1.10
2018-08-11T08:57:44.086Z,1.07
2018-08-11T09:00:14.162Z,0.70
2018-08-11T09:02:44.353Z,1.50
2018-08-11T09:05:14.497Z,1.30
2018-08-11T09:07:44.931Z,1.20
2018-08-11T09:10:15.003Z,0.97
2018-08-11T09:12:45.072Z,1.00
2018-08-11T09:15:15.296Z,0.70
2018-08-11T09:17:45.414Z,1.20
2018-08-11T09:20:15.527Z,1.47
2018-08-11T09:22:45.684Z,1.00
2018-08-11T09:25:15.805Z,1.13
2018-08-11T09:27:46.225Z,0.77
2018-08-11T09:30:16.847Z,1.30
2018-08-11T09:32:46.961Z,1.10
2018-08-11T09:35:17.052Z,1.30
2018-08-11T09:37:47.127Z,1.73
2018-08-11T09:40:17.443Z,1.20
2018-08-11T09:42:48.636Z,0.90
2018-08-11T09:45:18.733Z,1.10
2018-08-11T09:47:48.933Z,0.87
2018-08-11T09:50:19.067Z,1.03
2018-08-11T09:52:49.210Z,0.80
2018-08-11T09:55:19.269Z,0.80
2018-08-11T09:57:49.319Z,0.80
2018-08-11T10:00:24.705Z,1.10
2018-08-11T10:02:54.783Z,0.90
2018-08-11T10:05:25.087Z,0.70
2018-08-11T10:07:55.282Z,0.93
2018-08-11T10:10:25.405Z,1.10
2018-08-11T10:12:55.464Z,0.90
2018-08-11T10:15:25.599Z,1.27
2018-08-11T10:17:55.890Z,1.50
2018-08-11T10:20:26.031Z,1.13
2018-08-11T10:22:56.281Z,1.03
2018-08-11T10:25:26.800Z,0.90
2018-08-11T10:27:56.985Z,1.00
2018-08-11T10:30:27.221Z,1.23
2018-08-11T10:32:57.372Z,0.80
2018-08-11T10:35:27.402Z,0.80
2018-08-11T10:37:57.581Z,1.40
2018-08-11T10:40:27.683Z,1.20
2018-08-11T10:42:57.961Z,1.23
2018-08-11T10:45:28.108Z,1.00
2018-08-11T10:47:58.229Z,1.20
2018-08-11T10:50:28.417Z,1.10
2018-08-11T10:52:59.333Z,1.33
2018-08-11T10:55:29.574Z,1.10
2018-08-11T10:57:59.757Z,1.10
2018-08-11T11:00:29.910Z,1.00
2018-08-11T11:03:00.045Z,1.27
2018-08-11T11:05:30.100Z,1.40
2018-08-11T11:08:00.913Z,0.90
2018-08-11T11:10:31.039Z,1.20
2018-08-11T11:13:01.400Z,1.00
2018-08-11T11:15:31.436Z,1.07
2018-08-11T11:18:01.525Z,1.20
2018-08-11T11:20:31.625Z,0.90
2018-08-11T11:23:01.932Z,1.00
2018-08-11T11:25:33.711Z,1.10
2018-08-11T11:28:03.895Z,1.00
2018-08-11T11:30:34.005Z,1.43
2018-08-11T11:33:04.311Z,1.30
2018-08-11T11:35:34.623Z,1.00
2018-08-11T11:38:05.618Z,1.40
2018-08-11T11:40:36.273Z,1.40
2018-08-11T11:43:06.459Z,1.07
2018-08-11T11:45:36.966Z,1.33
2018-08-11T11:48:07.936Z,1.40
2018-08-11T11:50:38.183Z,1.00
2018-08-11T11:53:09.319Z,1.20
2018-08-11T11:55:39.419Z,1.73
2018-08-11T11:58:09.594Z,1.00
2018-08-11T12:00:39.740Z,1.67
2018-08-11T12:03:09.904Z,1.23
2018-08-11T12:05:40.061Z,1.20
2018-08-11T12:08:11.113Z,0.90
2018-08-11T12:10:41.270Z,0.93
2018-08-11T12:13:11.410Z,1.03
2018-08-11T12:15:41.632Z,1.20
2018-08-11T12:18:11.946Z,0.77
2018-08-11T12:20:42.182Z,1.60
2018-08-11T12:23:12.382Z,0.90
2018-08-11T12:25:42.559Z,1.40
2018-08-11T12:28:12.690Z,1.03
2018-08-11T12:30:42.742Z,1.03
2018-08-11T12:33:12.924Z,1.00
2018-08-11T12:35:43.340Z,0.80
2018-08-11T12:38:13.417Z,1.20
2018-08-11T12:40:43.579Z,1.03
2018-08-11T12:43:13.784Z,1.37
2018-08-11T12:45:43.991Z,1.17
2018-08-11T12:48:14.055Z,1.00
2018-08-11T12:50:44.276Z,1.10
2018-08-11T12:53:14.502Z,0.90
2018-08-11T12:55:44.629Z,0.80
2018-08-11T12:58:14.790Z,0.70
2018-08-11T13:00:44.891Z,1.10
2018-08-11T13:03:15.368Z,0.70
2018-08-11T13:05:45.620Z,1.17
2018-08-11T13:08:15.914Z,0.90
2018-08-11T13:10:46.136Z,0.90
2018-08-11T13:13:16.358Z,1.10
2018-08-11T13:15:46.411Z,1.20
2018-08-11T13:18:16.579Z,0.97
2018-08-11T13:20:46.760Z,1.40
2018-08-11T13:23:16.874Z,1.20
2018-08-11T13:25:47.133Z,1.30
2018-08-11T13:28:17.267Z,1.30
2018-08-11T13:30:47.421Z,1.30
2018-08-11T13:33:17.863Z,1.07
2018-08-11T13:35:47.968Z,1.10
2018-08-11T13:38:18.021Z,1.20
2018-08-11T13:40:48.187Z,0.73
2018-08-11T13:43:18.293Z,1.00
2018-08-11T13:45:48.462Z,1.07
2018-08-11T13:48:19.091Z,1.03
2018-08-11T13:50:49.265Z,0.80
2018-08-11T13:53:20.026Z,1.00
2018-08-11T13:55:50.649Z,1.27
2018-08-11T13:58:20.977Z,0.80
2018-08-11T14:00:51.121Z,1.10
2018-08-11T14:03:21.247Z,0.80
2018-08-11T14:05:51.431Z,1.10
2018-08-11T14:08:21.839Z,0.80
2018-08-11T14:10:51.977Z,0.70
2018-08-11T14:13:22.173Z,1.10
2018-08-11T14:15:52.380Z,1.10
2018-08-11T14:18:23.116Z,0.90
2018-08-11T14:20:53.237Z,1.20
2018-08-11T14:23:23.337Z,0.90
2018-08-11T14:25:53.366Z,1.00
2018-08-11T14:28:23.617Z,0.83
2018-08-11T14:30:53.756Z,1.20
2018-08-11T14:33:23.913Z,0.93
2018-08-11T14:35:54.145Z,1.43
2018-08-11T14:38:24.285Z,1.00
2018-08-11T14:40:54.413Z,1.00
2018-08-11T14:43:24.603Z,1.50
2018-08-11T14:45:54.723Z,0.90
2018-08-11T14:48:25.587Z,1.23
2018-08-11T14:50:55.713Z,1.40
2018-08-11T14:53:25.917Z,1.50
2018-08-11T14:55:56.081Z,1.20
2018-08-11T14:58:26.212Z,0.97
2018-08-11T15:00:56.681Z,1.13
2018-08-11T15:03:26.829Z,1.20
2018-08-11T15:05:56.913Z,1.20
2018-08-11T15:08:27.003Z,0.70
2018-08-11T15:10:57.079Z,0.93
2018-08-11T15:13:28.098Z,1.17
2018-08-11T15:15:58.300Z,1.10
2018-08-11T15:18:29.303Z,1.00
2018-08-11T15:20:59.470Z,1.40
2018-08-11T15:23:29.634Z,1.50
2018-08-11T15:25:59.683Z,1.20
2018-08-11T15:28:30.813Z,1.10
2018-08-11T15:31:00.879Z,1.10
2018-08-11T15:33:31.091Z,1.30
2018-08-11T15:36:01.236Z,0.90
2018-08-11T15:38:31.447Z,1.00
2018-08-11T15:41:01.582Z,1.60
2018-08-11T15:43:31.656Z,1.37
2018-08-11T15:46:01.813Z,0.70
2018-08-11T15:48:32.029Z,1.60
2018-08-11T15:51:02.084Z,1.67
2018-08-11T15:53:32.254Z,1.20
2018-08-11T15:56:02.350Z,1.37
2018-08-11T15:58:32.471Z,1.60
2018-08-11T16:01:02.573Z,1.50
2018-08-11T16:03:32.901Z,1.77
2018-08-11T16:06:02.978Z,1.30
2018-08-11T16:08:33.078Z,1.20
2018-08-11T16:11:03.281Z,1.07
2018-08-11T16:13:33.425Z,0.70
2018-08-11T16:16:03.626Z,1.27
2018-08-11T16:18:33.749Z,1.20
2018-08-11T16:21:03.796Z,1.00
2018-08-11T16:23:33.890Z,0.90
2018-08-11T16:26:03.994Z,1.10
2018-08-11T16:28:34.083Z,1.00
2018-08-11T16:31:04.232Z,4.40
2018-08-11T16:33:34.383Z,6.30
2018-08-11T16:36:04.493Z,3.67
2018-08-11T16:38:34.726Z,2.43
2018-08-11T16:41:04.918Z,2.27
2018-08-11T16:43:35.529Z,3.90
2018-08-11T16:46:05.901Z,2.70
2018-08-11T16:48:36.024Z,1.80
2018-08-11T16:51:06.550Z,2.93
2018-08-11T16:53:36.619Z,1.83
2018-08-11T16:56:06.863Z,1.30
2018-08-11T16:58:37.004Z,1.47
2018-08-11T17:01:07.133Z,1.30
2018-08-11T17:03:37.203Z,1.30
2018-08-11T17:06:07.426Z,0.90
2018-08-11T17:08:37.627Z,1.40
2018-08-11T17:11:07.889Z,1.53
2018-08-11T17:13:38.044Z,1.20
2018-08-11T17:16:08.209Z,1.30
2018-08-11T17:18:38.332Z,0.97
2018-08-11T17:21:09.137Z,1.17
2018-08-11T17:23:39.828Z,1.40
2018-08-11T17:26:09.962Z,1.10
2018-08-11T17:28:40.056Z,1.07
2018-08-11T17:31:10.185Z,1.27
2018-08-11T17:33:40.319Z,1.10
2018-08-11T17:36:10.415Z,1.43
2018-08-11T17:38:40.538Z,1.40
2018-08-11T17:41:10.572Z,1.27
2018-08-11T17:43:40.767Z,1.70
2018-08-11T17:46:11.563Z,1.40
2018-08-11T17:48:41.637Z,1.30
2018-08-11T17:51:11.830Z,1.20
2018-08-11T17:53:41.937Z,1.40
2018-08-11T17:56:12.192Z,1.50
2018-08-11T17:58:42.259Z,1.60
2018-08-11T18:01:12.452Z,1.70
2018-08-11T18:03:42.589Z,1.73
2018-08-11T18:06:12.789Z,1.40
2018-08-11T18:08:42.979Z,1.23
2018-08-11T18:11:13.248Z,1.13
2018-08-11T18:13:43.457Z,1.20
2018-08-11T18:16:13.715Z,1.13
2018-08-11T18:18:43.934Z,1.00
2018-08-11T18:21:14.669Z,0.83
2018-08-11T18:23:44.828Z,1.10
2018-08-11T18:26:15.171Z,1.20
2018-08-11T18:28:45.325Z,1.03
2018-08-11T18:31:15.654Z,1.70
2018-08-11T18:33:45.731Z,1.30
2018-08-11T18:36:15.878Z,1.00
2018-08-11T18:38:46.099Z,1.20
2018-08-11T18:41:16.253Z,1.10
2018-08-11T18:43:46.439Z,1.30
2018-08-11T18:46:16.626Z,1.17
2018-08-11T18:48:46.724Z,1.13
2018-08-11T18:51:16.901Z,1.00
2018-08-11T18:53:47.926Z,1.20
2018-08-11T18:56:18.248Z,0.80
2018-08-11T18:58:50.131Z,0.97
2018-08-11T19:01:20.255Z,0.90
2018-08-11T19:03:50.461Z,0.87
2018-08-11T19:06:20.556Z,1.10
2018-08-11T19:08:51.012Z,1.03
2018-08-11T19:11:21.191Z,0.70
2018-08-11T19:13:51.278Z,0.90
2018-08-11T19:16:22.099Z,1.00
2018-08-11T19:18:52.112Z,1.40
2018-08-11T19:21:22.303Z,1.03
2018-08-11T19:23:52.460Z,1.50
2018-08-11T19:26:23.029Z,1.07
2018-08-11T19:28:53.288Z,1.10
2018-08-11T19:31:23.498Z,1.40
2018-08-11T19:33:53.752Z,1.33
2018-08-11T19:36:23.843Z,1.43
2018-08-11T19:38:53.919Z,1.03
2018-08-11T19:41:24.602Z,1.10
2018-08-11T19:43:54.800Z,1.20
2018-08-11T19:46:26.009Z,1.40
2018-08-11T19:48:56.068Z,1.33
2018-08-11T19:51:26.364Z,1.40
2018-08-11T19:53:56.806Z,1.83
2018-08-11T19:56:26.926Z,1.10
2018-08-11T19:58:57.030Z,1.43
2018-08-11T20:01:27.176Z,1.30
2018-08-11T20:03:57.360Z,0.83
2018-08-11T20:06:27.744Z,1.30
2018-08-11T20:08:57.945Z,1.40
2018-08-11T20:11:28.034Z,1.30
2018-08-11T20:13:58.166Z,1.30
2018-08-11T20:16:28.366Z,1.47
2018-08-11T20:18:58.532Z,1.30
2018-08-11T20:21:28.683Z,1.80
2018-08-11T20:23:58.794Z,1.53
2018-08-11T20:26:29.010Z,1.50
2018-08-11T20:28:59.435Z,1.40
2018-08-11T20:31:29.576Z,1.30
2018-08-11T20:33:59.722Z,1.10
2018-08-11T20:36:29.987Z,1.10
2018-08-11T20:39:00.221Z,1.33
2018-08-11T20:41:30.945Z,1.23
2018-08-11T20:44:01.085Z,1.57
2018-08-11T20:46:31.713Z,1.20
2018-08-11T20:49:01.882Z,1.30
2018-08-11T20:51:32.255Z,1.30
2018-08-11T20:54:02.388Z,1.40
2018-08-11T20:56:32.665Z,1.53
2018-08-11T20:59:02.786Z,1.50
2018-08-11T21:01:33.045Z,1.30
2018-08-11T21:04:03.873Z,1.83
2018-08-11T21:06:34.101Z,1.90
2018-08-11T21:09:09.014Z,1.87
2018-08-11T21:11:39.224Z,1.70
2018-08-11T21:14:10.380Z,2.20
2018-08-11T21:16:40.690Z,2.17
2018-08-11T21:19:11.702Z,2.20
2018-08-11T21:21:41.872Z,2.20
2018-08-11T21:24:12.066Z,2.20
2018-08-11T21:26:42.271Z,2.63
2018-08-11T21:29:12.358Z,2.33
2018-08-11T21:31:42.471Z,2.27
2018-08-11T21:34:12.573Z,2.37
2018-08-11T21:36:42.649Z,2.70
2018-08-11T21:39:14.174Z,2.33
2018-08-11T21:41:44.347Z,2.57
2018-08-11T21:44:14.653Z,2.47
2018-08-11T21:46:44.883Z,2.70
2018-08-11T21:49:15.144Z,2.30
2018-08-11T21:51:45.366Z,2.47
2018-08-11T21:54:15.692Z,2.40
2018-08-11T21:56:45.874Z,2.07
2018-08-11T21:59:16.049Z,2.70
2018-08-11T22:01:46.317Z,3.10
2018-08-11T22:04:16.563Z,2.80
2018-08-11T22:06:46.801Z,2.40
2018-08-11T22:09:17.032Z,2.73
2018-08-11T22:11:47.133Z,2.80
2018-08-11T22:14:17.779Z,2.60
2018-08-11T22:16:47.901Z,2.73
2018-08-11T22:19:18.100Z,2.40
2018-08-11T22:21:48.319Z,2.40
2018-08-11T22:24:21.021Z,2.23
2018-08-11T22:26:51.218Z,2.70
2018-08-11T22:29:21.357Z,2.50
2018-08-11T22:31:51.553Z,2.47
2018-08-11T22:34:21.826Z,2.40
2018-08-11T22:36:52.688Z,2.23
2018-08-11T22:39:22.924Z,2.40
2018-08-11T22:41:53.145Z,2.03
2018-08-11T22:44:23.331Z,2.00
2018-08-11T22:46:54.512Z,2.10
2018-08-11T22:49:24.634Z,2.30
2018-08-11T22:51:54.856Z,2.10
2018-08-11T22:54:25.169Z,2.07
2018-08-11T22:56:55.281Z,2.10
2018-08-11T22:59:25.518Z,1.83
2018-08-11T23:01:55.785Z,2.07
2018-08-11T23:04:25.861Z,2.10
2018-08-11T23:06:56.070Z,2.30
2018-08-11T23:09:26.255Z,2.37
2018-08-11T23:11:56.479Z,1.70
2018-08-11T23:14:27.266Z,2.17
2018-08-11T23:16:57.911Z,2.30
2018-08-11T23:19:28.295Z,2.07
2018-08-11T23:21:58.380Z,2.07
2018-08-11T23:24:28.624Z,1.80
2018-08-11T23:26:58.742Z,2.13
2018-08-11T23:29:28.969Z,2.23
2018-08-11T23:31:59.275Z,2.40
2018-08-11T23:34:29.603Z,2.30
2018-08-11T23:36:59.841Z,2.30
2018-08-11T23:39:29.960Z,2.03
2018-08-11T23:42:00.185Z,1.70
2018-08-11T23:44:31.098Z,2.13
2018-08-11T23:47:01.264Z,1.87
2018-08-11T23:49:31.408Z,2.03
2018-08-11T23:52:01.496Z,2.17
2018-08-11T23:54:31.757Z,1.90
2018-08-11T23:57:02.096Z,1.97
2018-08-11T23:59:32.368Z,2.40
